CheckWX is a tool to help pilots better visualize weather data.  It is not intended as a substitute for an official pre-flight weather briefing.

16:46:32 UTC

CWIL METAR
Hat Island Airport
Canada
Current

30 mins ago

CWIL 221617Z AUTO 03022G28KT ////SM SCT007 BKN017 BKN028 M21/M23 A2967
Observed
Mar-22 @ 16:17 UTC
Wind
  • 030° at 22 KTS
  • Gusting to 28 KTS
Visibility
Cloud Levels
  • Scattered at 700' AGL
  • Broken at 1,700' AGL
  • Broken at 2,800' AGL
Temperature
-21°C / -6°F
Dewpoint
-23°C / -9°F
Humidity
84%
Altimeter
29.67" Hg
Pressure
1004.72 hPa
Previous

2 hours ago

CWIL 221507Z AUTO 04023KT ////SM FEW009 SCT030 BKN055 M20/M22 A2962
Observed
Mar-22 @ 15:07 UTC
Wind
  • 040° at 23 KTS
Visibility
Cloud Levels
  • Few at 900' AGL
  • Scattered at 3,000' AGL
  • Broken at 5,500' AGL
Temperature
-20°C / -4°F
Dewpoint
-22°C / -8°F
Humidity
84%
Altimeter
29.62" Hg
Pressure
1003.02 hPa
Previous

3 hours ago

CWIL 221415Z AUTO 04019KT ////SM SCT005 BKN035 BKN041 M20/M22 A2963
Observed
Mar-22 @ 14:15 UTC
Wind
  • 040° at 19 KTS
Visibility
Cloud Levels
  • Scattered at 500' AGL
  • Broken at 3,500' AGL
  • Broken at 4,100' AGL
Temperature
-20°C / -4°F
Dewpoint
-22°C / -8°F
Humidity
84%
Altimeter
29.63" Hg
Pressure
1003.42 hPa